Time;durP1;ratioP1;P1;durP2;ratioP2;P2;SDS_P1;SDS_P2;PMS_P1;PMS_P2;Temp;Humidity;BMP_temperature;BMP_pressure;BME280_temperature;BME280_humidity;BME280_pressure;Samples;Min_cycle;Max_cycle;Signal;HPM_P1;HPM_P2
2021/12/01 00:00:59;;;;;;;17.40;1.73;;;11.50;99.90;;;;;;5110700;28;20108;-72
2021/12/01 00:03:24;;;;;;;11.13;1.85;;;11.60;99.90;;;;;;5112593;28;20098;-71
2021/12/01 00:05:51;;;;;;;10.23;1.80;;;11.60;99.90;;;;;;5112462;28;20106;-71
2021/12/01 00:08:17;;;;;;;16.60;2.20;;;11.60;99.90;;;;;;5112464;28;20031;-72
2021/12/01 00:10:43;;;;;;;18.27;2.00;;;11.60;99.90;;;;;;5113447;28;20027;-72
2021/12/01 00:13:13;;;;;;;17.88;2.60;;;11.60;99.90;;;;;;5112815;28;20106;-71
2021/12/01 00:15:41;;;;;;;17.77;3.13;;;11.60;99.90;;;;;;5093422;28;20031;-72
2021/12/01 00:18:07;;;;;;;22.63;2.70;;;11.60;99.90;;;;;;5113270;28;20015;-72
2021/12/01 00:20:33;;;;;;;18.42;2.90;;;11.60;99.90;;;;;;5111695;28;20387;-72
2021/12/01 00:22:59;;;;;;;23.30;3.33;;;11.60;99.90;;;;;;5094577;28;20424;-71
2021/12/01 00:25:26;;;;;;;19.15;2.50;;;11.60;99.90;;;;;;5092983;28;20028;-71
2021/12/01 00:27:54;;;;;;;21.50;3.55;;;11.60;99.90;;;;;;5113475;28;20020;-72
2021/12/01 00:30:20;;;;;;;15.95;2.63;;;11.60;99.90;;;;;;5116778;28;20015;-72
2021/12/01 00:32:47;;;;;;;22.58;3.00;;;11.50;99.90;;;;;;5117920;28;20088;-71
2021/12/01 00:35:14;;;;;;;26.67;3.25;;;11.60;99.90;;;;;;5097067;28;20490;-72
2021/12/01 00:37:40;;;;;;;15.20;2.58;;;11.60;99.90;;;;;;5109910;28;20090;-71
2021/12/01 00:40:08;;;;;;;23.50;2.60;;;11.60;99.90;;;;;;5115091;28;20024;-74
2021/12/01 00:42:34;;;;;;;17.98;3.83;;;11.60;99.90;;;;;;5116291;28;20418;-71
2021/12/01 00:45:06;;;;;;;22.92;2.80;;;11.60;99.90;;;;;;5111910;28;20028;-72
2021/12/01 00:50:13;;;;;;;24.95;2.80;;;11.60;99.90;;;;;;5116447;28;20027;-72
2021/12/01 00:52:39;;;;;;;18.30;3.17;;;11.60;99.90;;;;;;5116877;28;20059;-71
2021/12/01 00:55:06;;;;;;;19.80;3.65;;;11.70;99.90;;;;;;5116510;28;20070;-71
2021/12/01 00:57:32;;;;;;;14.88;2.67;;;11.70;99.90;;;;;;5117443;28;20030;-75
2021/12/01 00:59:57;;;;;;;19.30;3.08;;;11.70;99.90;;;;;;5116756;28;20048;-72
2021/12/01 01:02:23;;;;;;;18.35;2.80;;;11.60;99.90;;;;;;5099121;28;20471;-76
2021/12/01 01:04:49;;;;;;;23.02;3.85;;;11.60;99.90;;;;;;5112385;27;20028;-73
2021/12/01 01:07:14;;;;;;;24.33;3.92;;;11.60;99.90;;;;;;5115966;28;20485;-76
2021/12/01 01:09:43;;;;;;;29.15;4.38;;;11.60;99.90;;;;;;5102932;28;20024;-73
2021/12/01 01:17:52;;;;;;;22.63;4.15;;;11.60;99.90;;;;;;5110819;28;20042;-71
2021/12/01 01:20:18;;;;;;;24.48;3.38;;;11.60;99.90;;;;;;5116135;28;20118;-72
2021/12/01 01:22:44;;;;;;;25.98;4.10;;;11.60;99.90;;;;;;5116495;28;20020;-74
2021/12/01 01:25:11;;;;;;;32.00;4.53;;;11.60;99.90;;;;;;5115917;28;20019;-75
2021/12/01 01:27:37;;;;;;;26.63;4.00;;;11.50;99.90;;;;;;5115673;28;20437;-71
2021/12/01 01:30:04;;;;;;;27.30;4.57;;;11.50;99.90;;;;;;5116245;28;20032;-74
2021/12/01 01:32:33;;;;;;;26.90;4.60;;;11.50;99.90;;;;;;5116166;28;20031;-72
2021/12/01 01:34:59;;;;;;;28.52;4.25;;;11.50;99.90;;;;;;5099299;28;20031;-71
2021/12/01 01:37:25;;;;;;;33.40;4.97;;;11.50;99.90;;;;;;5127691;27;20024;-75
2021/12/01 01:39:51;;;;;;;33.88;4.28;;;11.50;99.90;;;;;;5116240;28;20032;-74
2021/12/01 01:42:16;;;;;;;30.98;4.43;;;11.50;99.90;;;;;;5111292;28;20032;-73
2021/12/01 01:44:42;;;;;;;30.13;5.28;;;11.40;99.90;;;;;;5116232;28;20409;-74
2021/12/01 01:47:08;;;;;;;31.17;3.47;;;11.40;99.90;;;;;;5115407;28;20019;-74
2021/12/01 01:49:47;;;;;;;34.47;4.40;;;11.40;99.90;;;;;;5115933;28;20026;-74
2021/12/01 01:52:13;;;;;;;27.05;4.63;;;11.40;99.90;;;;;;5107126;28;20084;-75
2021/12/01 01:54:38;;;;;;;24.75;4.10;;;11.40;99.90;;;;;;5115648;28;20134;-76
2021/12/01 01:57:04;;;;;;;26.35;4.68;;;11.30;99.90;;;;;;5112915;28;20436;-75
2021/12/01 01:59:30;;;;;;;31.52;4.45;;;11.30;99.90;;;;;;5103096;28;20020;-76
2021/12/01 02:01:57;;;;;;;26.83;4.05;;;11.30;99.90;;;;;;5115753;28;20047;-74
2021/12/01 02:04:33;;;;;;;31.00;4.20;;;11.30;99.90;;;;;;5115103;28;20047;-73
2021/12/01 02:07:00;;;;;;;29.23;3.50;;;11.30;99.90;;;;;;5114165;28;20031;-74
2021/12/01 02:09:27;;;;;;;23.35;4.35;;;11.30;99.90;;;;;;5097966;28;20049;-72
2021/12/01 02:11:57;;;;;;;25.40;4.63;;;11.40;99.90;;;;;;5115126;28;20044;-76
2021/12/01 02:14:23;;;;;;;30.67;4.25;;;11.40;99.90;;;;;;5110795;28;20035;-72
2021/12/01 02:16:49;;;;;;;30.05;5.07;;;11.50;99.90;;;;;;5111215;28;20031;-74
2021/12/01 02:19:15;;;;;;;29.35;4.10;;;11.50;99.90;;;;;;5093658;27;20110;-74
2021/12/01 02:21:41;;;;;;;27.63;4.32;;;11.50;99.90;;;;;;5116387;27;20130;-72
2021/12/01 02:24:10;;;;;;;32.97;5.22;;;11.50;99.90;;;;;;5114885;28;20023;-75
2021/12/01 02:26:46;;;;;;;32.17;5.50;;;11.50;99.90;;;;;;5114268;28;20023;-74
2021/12/01 02:29:16;;;;;;;25.95;3.78;;;11.50;99.90;;;;;;5113648;28;20395;-74
2021/12/01 02:31:43;;;;;;;32.80;4.10;;;11.50;99.90;;;;;;5113185;28;20081;-76
2021/12/01 02:34:14;;;;;;;25.35;3.30;;;11.50;99.90;;;;;;5113994;28;20080;-75
2021/12/01 02:36:40;;;;;;;23.77;3.83;;;11.50;99.90;;;;;;5114707;28;20042;-73
2021/12/01 02:39:10;;;;;;;21.20;3.45;;;11.60;99.90;;;;;;5114201;28;20097;-74
2021/12/01 02:41:37;;;;;;;23.55;3.60;;;11.60;99.90;;;;;;5095638;28;20093;-75
2021/12/01 02:44:05;;;;;;;28.20;3.67;;;11.60;99.90;;;;;;5076372;28;20479;-73
2021/12/01 02:46:31;;;;;;;24.42;3.40;;;11.60;99.90;;;;;;5088860;28;20432;-73
2021/12/01 02:48:57;;;;;;;18.33;3.42;;;11.50;99.90;;;;;;5114621;28;20051;-72
2021/12/01 02:51:27;;;;;;;21.38;3.20;;;11.50;99.90;;;;;;5112485;28;20113;-76
2021/12/01 02:53:53;;;;;;;32.30;4.63;;;11.50;99.90;;;;;;5114183;28;20027;-74
2021/12/01 02:56:24;;;;;;;14.75;3.95;;;11.50;99.90;;;;;;5114922;28;20059;-77
2021/12/01 02:58:51;;;;;;;18.38;3.75;;;11.50;99.90;;;;;;5114097;28;20047;-77
2021/12/01 03:01:20;;;;;;;24.95;3.83;;;11.50;99.90;;;;;;5113890;28;20071;-72
2021/12/01 03:03:47;;;;;;;19.48;2.85;;;11.40;99.90;;;;;;5114249;28;20063;-76
2021/12/01 03:06:13;;;;;;;17.92;3.05;;;11.40;99.90;;;;;;5114668;28;20024;-71
2021/12/01 03:08:43;;;;;;;23.88;3.72;;;11.40;99.90;;;;;;5114988;28;20020;-76
2021/12/01 03:11:09;;;;;;;17.90;2.90;;;11.40;99.90;;;;;;5114335;28;20490;-73
2021/12/01 03:13:35;;;;;;;15.40;2.30;;;11.30;99.90;;;;;;5113834;28;20023;-72
2021/12/01 03:16:01;;;;;;;21.00;3.38;;;11.30;99.90;;;;;;5114056;28;20035;-71
2021/12/01 03:18:28;;;;;;;15.98;3.03;;;11.30;99.90;;;;;;5114787;28;20466;-71
2021/12/01 03:20:54;;;;;;;12.70;2.67;;;11.20;99.90;;;;;;5095785;28;20078;-72
2021/12/01 03:23:21;;;;;;;11.75;2.20;;;11.20;99.90;;;;;;5114044;28;20035;-75
2021/12/01 03:25:47;;;;;;;21.65;3.75;;;11.20;99.90;;;;;;5113528;28;20459;-72
2021/12/01 03:28:13;;;;;;;15.00;2.40;;;11.20;99.90;;;;;;5113255;28;20375;-73
2021/12/01 03:30:40;;;;;;;18.45;2.83;;;11.10;99.90;;;;;;5112765;28;20073;-71
2021/12/01 03:33:08;;;;;;;12.48;2.42;;;11.10;99.90;;;;;;5113507;28;20042;-72
2021/12/01 03:35:36;;;;;;;14.75;2.60;;;11.10;99.90;;;;;;5113686;28;20106;-72
2021/12/01 03:38:02;;;;;;;15.40;2.50;;;11.10;99.90;;;;;;5113839;28;20023;-76
2021/12/01 03:40:27;;;;;;;11.77;2.28;;;11.10;99.90;;;;;;5113159;28;20032;-73
2021/12/01 03:42:53;;;;;;;12.10;2.53;;;11.10;99.90;;;;;;5113622;28;20031;-72
2021/12/01 03:45:19;;;;;;;8.43;2.00;;;11.00;99.90;;;;;;5113658;28;20027;-72
2021/12/01 03:47:45;;;;;;;11.43;2.20;;;11.00;99.90;;;;;;5113292;28;20110;-72
2021/12/01 03:50:11;;;;;;;10.13;2.33;;;11.00;99.90;;;;;;5112952;28;20107;-73
2021/12/01 03:52:38;;;;;;;14.52;2.70;;;11.00;99.90;;;;;;5094610;28;20043;-73
2021/12/01 03:55:05;;;;;;;7.30;2.45;;;10.90;99.90;;;;;;5094998;28;20050;-73
2021/12/01 03:57:30;;;;;;;7.88;1.90;;;10.90;99.90;;;;;;5113348;28;20072;-76
2021/12/01 03:59:56;;;;;;;6.35;1.80;;;10.90;99.90;;;;;;5113123;28;20126;-74
2021/12/01 04:02:22;;;;;;;5.13;1.55;;;10.90;99.90;;;;;;5112986;28;20036;-76
2021/12/01 04:04:48;;;;;;;4.97;1.17;;;10.90;99.90;;;;;;5113337;28;20028;-74
2021/12/01 04:07:13;;;;;;;3.22;0.93;;;10.80;99.90;;;;;;5113187;28;20024;-72
2021/12/01 04:09:42;;;;;;;2.83;1.02;;;10.80;99.90;;;;;;5112319;28;20031;-73
2021/12/01 04:12:08;;;;;;;3.78;1.00;;;10.80;99.90;;;;;;5112221;28;20039;-75
2021/12/01 04:14:34;;;;;;;1.23;0.60;;;10.80;99.90;;;;;;5113189;28;20036;-71
2021/12/01 04:16:59;;;;;;;4.70;1.20;;;10.80;99.90;;;;;;5113514;28;20080;-72
2021/12/01 04:19:25;;;;;;;6.40;0.80;;;10.80;99.90;;;;;;5112051;28;20027;-75
2021/12/01 04:21:51;;;;;;;2.78;0.70;;;10.70;99.90;;;;;;5094369;28;20100;-74
2021/12/01 04:24:17;;;;;;;2.38;0.88;;;10.70;99.90;;;;;;5095016;28;20067;-75
2021/12/01 04:26:43;;;;;;;1.45;0.90;;;10.60;99.90;;;;;;5095431;28;20020;-74
2021/12/01 04:29:08;;;;;;;2.83;1.00;;;10.60;99.90;;;;;;5094435;28;20360;-76
2021/12/01 04:31:37;;;;;;;5.25;1.00;;;10.60;99.90;;;;;;5094829;28;20063;-74
2021/12/01 04:34:03;;;;;;;5.47;1.38;;;10.60;99.90;;;;;;5113037;28;20121;-75
2021/12/01 04:36:33;;;;;;;5.68;1.40;;;10.60;99.90;;;;;;5113293;28;20024;-75
2021/12/01 04:38:59;;;;;;;2.50;1.40;;;10.50;99.90;;;;;;5112972;28;20032;-73
2021/12/01 04:41:27;;;;;;;7.03;1.63;;;10.50;99.90;;;;;;5113612;28;20035;-73
2021/12/01 04:43:53;;;;;;;9.07;1.63;;;10.50;99.90;;;;;;5099353;28;20027;-75
2021/12/01 04:46:20;;;;;;;7.45;1.83;;;10.50;99.90;;;;;;5113449;28;20076;-72
2021/12/01 04:48:47;;;;;;;11.93;2.15;;;10.40;99.90;;;;;;5113539;28;20016;-76
2021/12/01 04:51:13;;;;;;;9.20;2.40;;;10.40;99.90;;;;;;5112902;28;20035;-74
2021/12/01 04:53:38;;;;;;;10.73;2.05;;;10.40;99.90;;;;;;5093648;28;20540;-74
2021/12/01 04:56:06;;;;;;;6.93;2.38;;;10.40;99.90;;;;;;5113176;28;20116;-70
2021/12/01 04:58:32;;;;;;;12.52;2.85;;;10.40;99.90;;;;;;5113231;28;20042;-74
2021/12/01 05:00:59;;;;;;;8.18;3.08;;;10.40;99.90;;;;;;5112903;28;20105;-70
2021/12/01 05:03:25;;;;;;;11.80;2.58;;;10.40;99.90;;;;;;5094960;28;20023;-72
2021/12/01 05:05:50;;;;;;;14.52;3.10;;;10.40;99.90;;;;;;5094741;28;20037;-74
2021/12/01 05:08:16;;;;;;;10.90;3.08;;;10.40;99.90;;;;;;5113627;28;20028;-76
2021/12/01 05:10:42;;;;;;;10.98;3.58;;;10.40;99.90;;;;;;5112978;28;20023;-74
2021/12/01 05:13:07;;;;;;;11.38;2.47;;;10.40;99.90;;;;;;5112654;28;20038;-72
2021/12/01 05:15:33;;;;;;;14.10;3.15;;;10.30;99.90;;;;;;5113636;28;20455;-74
2021/12/01 05:17:59;;;;;;;18.23;3.40;;;10.30;99.90;;;;;;5116973;28;20020;-72
2021/12/01 05:20:24;;;;;;;11.02;2.97;;;10.30;99.90;;;;;;5116120;28;20024;-75
2021/12/01 05:22:50;;;;;;;12.00;2.42;;;10.30;99.90;;;;;;5117119;28;20459;-76
2021/12/01 05:25:16;;;;;;;11.82;2.97;;;10.30;99.90;;;;;;5116298;28;20052;-73
2021/12/01 05:27:41;;;;;;;13.85;2.53;;;10.30;99.90;;;;;;5115434;28;20027;-73
2021/12/01 05:30:07;;;;;;;18.10;4.10;;;10.20;99.90;;;;;;5115748;28;20152;-74
2021/12/01 05:32:33;;;;;;;11.70;2.92;;;10.20;99.90;;;;;;5115306;28;20467;-76
2021/12/01 05:34:59;;;;;;;12.02;3.13;;;10.20;99.90;;;;;;5097161;28;20028;-72
2021/12/01 05:37:25;;;;;;;17.73;2.92;;;10.20;99.90;;;;;;5096654;28;20035;-74
2021/12/01 05:39:51;;;;;;;11.55;3.28;;;10.20;99.90;;;;;;5114914;28;20172;-72
2021/12/01 05:42:17;;;;;;;19.08;3.65;;;10.20;99.90;;;;;;5115280;28;20102;-72
2021/12/01 05:44:44;;;;;;;24.50;4.75;;;10.20;99.90;;;;;;5097036;28;20173;-75
2021/12/01 05:47:10;;;;;;;24.77;3.53;;;10.20;99.90;;;;;;5115856;28;20024;-75
2021/12/01 05:49:44;;;;;;;23.35;3.35;;;10.30;99.90;;;;;;5115375;28;20047;-73
2021/12/01 05:52:12;;;;;;;21.63;3.75;;;10.30;99.90;;;;;;5115558;28;20039;-74
2021/12/01 05:54:38;;;;;;;19.50;3.78;;;10.30;99.90;;;;;;5098252;28;20026;-74
2021/12/01 05:57:05;;;;;;;20.33;4.13;;;10.40;99.90;;;;;;5115358;28;20023;-72
2021/12/01 05:59:30;;;;;;;21.90;4.38;;;10.30;99.90;;;;;;5115012;28;20055;-74
2021/12/01 06:01:56;;;;;;;16.70;3.00;;;10.40;99.90;;;;;;5114640;28;20124;-71
2021/12/01 06:04:25;;;;;;;25.83;3.63;;;10.40;99.90;;;;;;5097285;28;20028;-74
2021/12/01 06:06:51;;;;;;;21.52;3.60;;;10.50;99.90;;;;;;5114812;28;20111;-75
2021/12/01 06:09:17;;;;;;;20.17;3.33;;;10.50;99.90;;;;;;5097334;28;20104;-72
2021/12/01 06:11:46;;;;;;;22.85;3.60;;;10.50;99.90;;;;;;5096899;28;20482;-74
2021/12/01 06:14:13;;;;;;;20.42;3.70;;;10.50;99.90;;;;;;5115665;28;20066;-71
2021/12/01 06:16:39;;;;;;;17.00;3.40;;;10.60;99.90;;;;;;5113945;28;20374;-71
2021/12/01 06:19:05;;;;;;;15.40;3.47;;;10.50;99.90;;;;;;5115088;28;20028;-76
2021/12/01 06:21:30;;;;;;;21.55;3.80;;;10.50;99.90;;;;;;5097433;28;20118;-72
2021/12/01 06:23:56;;;;;;;20.55;3.15;;;10.50;99.90;;;;;;5114582;28;20398;-72
2021/12/01 06:26:22;;;;;;;24.55;4.32;;;10.50;99.90;;;;;;5113857;28;20030;-72
2021/12/01 06:28:47;;;;;;;17.88;3.28;;;10.50;99.90;;;;;;5096041;28;20529;-73
2021/12/01 06:31:13;;;;;;;18.77;3.75;;;10.50;99.90;;;;;;5114475;28;20031;-74
2021/12/01 06:33:39;;;;;;;28.45;4.20;;;10.50;99.90;;;;;;5115598;28;20457;-76
2021/12/01 06:36:04;;;;;;;25.90;4.10;;;10.50;99.90;;;;;;5114836;28;20024;-76
2021/12/01 06:38:32;;;;;;;22.90;3.47;;;10.60;99.90;;;;;;5114939;28;20027;-72
2021/12/01 06:40:58;;;;;;;24.45;4.13;;;10.60;99.90;;;;;;5114997;28;20081;-75
2021/12/01 06:43:23;;;;;;;19.70;3.10;;;10.60;99.90;;;;;;5115383;28;20467;-74
2021/12/01 06:45:49;;;;;;;21.85;4.50;;;10.60;99.90;;;;;;5114060;28;20024;-73
2021/12/01 06:48:15;;;;;;;24.23;3.50;;;10.60;99.90;;;;;;5114731;28;20055;-75
2021/12/01 06:50:40;;;;;;;25.30;3.85;;;10.60;99.90;;;;;;5114097;28;20077;-73
2021/12/01 06:53:06;;;;;;;27.67;4.32;;;10.60;99.90;;;;;;5112523;27;20049;-76
2021/12/01 06:55:32;;;;;;;29.60;4.55;;;10.70;99.90;;;;;;5095893;28;20027;-74
2021/12/01 06:57:58;;;;;;;26.65;4.13;;;10.70;99.90;;;;;;5113948;28;20027;-73
2021/12/01 07:00:25;;;;;;;34.17;5.38;;;10.70;99.90;;;;;;5112595;28;20051;-75
2021/12/01 07:02:54;;;;;;;24.80;3.85;;;10.70;99.90;;;;;;5114848;28;20396;-72
2021/12/01 07:05:19;;;;;;;24.92;3.65;;;10.70;99.90;;;;;;5113429;28;20028;-74
2021/12/01 07:07:45;;;;;;;23.67;3.92;;;10.70;99.90;;;;;;5095408;28;20032;-73
2021/12/01 07:10:12;;;;;;;23.45;3.58;;;10.70;99.90;;;;;;5113742;28;20027;-74
2021/12/01 07:12:39;;;;;;;15.63;3.00;;;10.70;99.90;;;;;;5112407;28;20024;-73
2021/12/01 07:15:06;;;;;;;26.27;4.20;;;10.70;99.90;;;;;;5113055;27;20050;-73
2021/12/01 07:17:32;;;;;;;17.58;2.85;;;10.80;99.90;;;;;;5113734;28;20068;-72
2021/12/01 07:19:57;;;;;;;27.92;3.85;;;10.70;99.90;;;;;;5096244;28;20024;-73
2021/12/01 07:22:23;;;;;;;26.15;3.92;;;10.60;99.90;;;;;;5096340;28;20424;-73
2021/12/01 07:24:48;;;;;;;27.60;3.83;;;10.50;99.90;;;;;;5095675;28;21024;-72
2021/12/01 07:27:15;;;;;;;19.67;2.78;;;10.40;99.90;;;;;;5095897;28;20059;-74
2021/12/01 07:29:42;;;;;;;16.13;2.83;;;10.30;99.90;;;;;;5114277;28;20051;-74
2021/12/01 07:32:09;;;;;;;14.02;2.40;;;10.20;99.90;;;;;;5111954;28;20031;-72
2021/12/01 07:34:41;;;;;;;16.48;2.85;;;10.20;99.90;;;;;;5113776;28;20477;-74
2021/12/01 07:37:08;;;;;;;;;;;10.10;99.90;;;;;;5095021;28;20015;-72
2021/12/01 07:39:33;;;;;;;16.50;2.45;;;10.10;99.90;;;;;;5112251;28;19908;-72
2021/12/01 07:41:59;;;;;;;20.38;3.72;;;10.10;99.90;;;;;;5113074;28;20535;-75
2021/12/01 07:44:24;;;;;;;18.60;2.38;;;10.00;99.90;;;;;;5112630;28;20437;-72
2021/12/01 07:46:50;;;;;;;10.52;1.50;;;10.10;99.90;;;;;;5094582;28;20039;-71
2021/12/01 07:49:18;;;;;;;17.95;2.63;;;10.10;99.90;;;;;;5113623;28;20368;-72
2021/12/01 07:51:44;;;;;;;13.25;2.25;;;10.10;99.90;;;;;;5114165;28;20117;-73
2021/12/01 07:54:10;;;;;;;15.38;2.42;;;10.10;99.90;;;;;;5113977;28;20379;-76
2021/12/01 07:56:39;;;;;;;6.50;1.75;;;10.10;99.90;;;;;;5110106;27;20031;-76
2021/12/01 07:59:04;;;;;;;13.00;2.45;;;10.10;99.90;;;;;;5092490;28;20118;-74
2021/12/01 08:01:30;;;;;;;10.45;1.73;;;10.10;99.90;;;;;;5110314;27;20134;-73
2021/12/01 08:03:56;;;;;;;12.80;2.42;;;10.00;99.90;;;;;;5111548;28;20450;-74
2021/12/01 08:06:22;;;;;;;13.05;2.47;;;10.00;99.90;;;;;;5112907;28;20034;-73
2021/12/01 08:08:51;;;;;;;14.52;2.33;;;10.00;99.90;;;;;;5113086;28;20024;-74
2021/12/01 08:11:17;;;;;;;16.98;2.80;;;10.00;99.90;;;;;;5110430;28;20035;-75
2021/12/01 08:13:43;;;;;;;11.57;2.00;;;10.00;99.90;;;;;;5113441;28;20026;-74
2021/12/01 08:16:08;;;;;;;12.57;2.38;;;10.00;99.90;;;;;;5111156;28;20436;-75
2021/12/01 08:18:34;;;;;;;12.88;1.90;;;10.00;99.90;;;;;;5112329;28;20027;-71
2021/12/01 08:21:00;;;;;;;14.40;1.98;;;10.00;99.90;;;;;;5095237;28;20439;-73
2021/12/01 08:23:25;;;;;;;16.58;2.42;;;10.00;99.90;;;;;;5113237;28;20044;-74
2021/12/01 08:25:51;;;;;;;16.35;2.30;;;10.00;99.90;;;;;;5094525;28;20136;-72
2021/12/01 08:28:17;;;;;;;17.08;2.97;;;10.00;99.90;;;;;;5094332;28;20055;-75
2021/12/01 08:30:42;;;;;;;14.18;2.20;;;10.00;99.90;;;;;;5113218;28;20024;-72
2021/12/01 08:33:08;;;;;;;6.97;1.73;;;10.10;99.90;;;;;;5112466;28;20043;-73
2021/12/01 08:35:34;;;;;;;9.90;1.80;;;10.10;99.90;;;;;;5112241;28;20024;-75
2021/12/01 08:38:00;;;;;;;9.23;2.13;;;10.10;99.90;;;;;;5096136;28;20114;-75
2021/12/01 08:40:25;;;;;;;11.00;1.55;;;10.10;99.90;;;;;;5094150;28;20023;-72
2021/12/01 08:42:51;;;;;;;12.10;2.15;;;10.10;99.90;;;;;;5113190;28;20055;-74
2021/12/01 08:45:17;;;;;;;16.60;2.85;;;10.10;99.90;;;;;;5112730;28;20023;-73
2021/12/01 08:47:43;;;;;;;10.15;1.90;;;10.10;99.90;;;;;;5112013;28;20076;-73
2021/12/01 08:50:11;;;;;;;14.95;2.33;;;10.00;99.90;;;;;;5113743;28;20027;-71
2021/12/01 08:52:38;;;;;;;15.98;2.28;;;10.00;99.90;;;;;;5116618;28;20055;-76
2021/12/01 08:55:05;;;;;;;12.13;2.30;;;10.00;99.90;;;;;;5098443;28;20094;-72
2021/12/01 08:57:30;;;;;;;16.88;2.10;;;10.00;99.90;;;;;;5117261;28;20028;-73
2021/12/01 08:59:56;;;;;;;19.00;2.22;;;9.90;99.90;;;;;;5117074;28;20104;-76
2021/12/01 09:02:22;;;;;;;12.95;1.70;;;9.90;99.90;;;;;;5115380;28;20429;-74
2021/12/01 09:04:50;;;;;;;14.35;2.05;;;9.70;99.90;;;;;;5116084;27;20098;-74
2021/12/01 09:07:17;;;;;;;14.27;2.78;;;9.70;99.90;;;;;;5114218;28;20027;-75
2021/12/01 09:09:42;;;;;;;11.93;1.95;;;9.70;99.90;;;;;;5116509;28;20094;-71
2021/12/01 09:12:08;;;;;;;16.25;1.88;;;9.70;99.90;;;;;;5098213;28;20134;-75
2021/12/01 09:14:34;;;;;;;8.90;1.60;;;9.60;99.90;;;;;;5116553;28;20112;-73
2021/12/01 09:16:59;;;;;;;18.30;4.32;;;9.60;99.90;;;;;;5096744;28;20406;-72
2021/12/01 09:19:25;;;;;;;12.65;1.80;;;9.60;99.90;;;;;;5116506;27;20153;-73
2021/12/01 09:21:51;;;;;;;14.30;2.20;;;9.70;99.90;;;;;;5116367;27;20413;-76
2021/12/01 09:24:18;;;;;;;12.13;1.50;;;9.70;99.90;;;;;;5116273;28;20030;-75
2021/12/01 09:26:44;;;;;;;13.07;1.63;;;9.70;99.90;;;;;;5115901;28;20106;-74
2021/12/01 09:29:10;;;;;;;11.35;2.10;;;9.80;99.90;;;;;;5116239;28;20448;-75
2021/12/01 09:31:36;;;;;;;10.57;1.60;;;9.80;99.90;;;;;;5115293;28;20066;-75
2021/12/01 09:34:03;;;;;;;12.57;2.30;;;9.90;99.90;;;;;;5116709;28;20459;-73
2021/12/01 09:36:29;;;;;;;16.33;2.45;;;10.00;99.90;;;;;;5113677;28;20024;-70
2021/12/01 09:38:56;;;;;;;10.90;2.22;;;10.10;99.90;;;;;;5113113;28;20119;-72
2021/12/01 09:41:22;;;;;;;21.63;3.00;;;10.20;99.90;;;;;;5115005;28;20032;-72
2021/12/01 09:43:47;;;;;;;16.13;2.03;;;10.10;99.90;;;;;;5115123;28;20118;-71
2021/12/01 09:46:17;;;;;;;16.80;2.35;;;10.10;99.90;;;;;;5113917;28;20026;-72
2021/12/01 09:48:43;;;;;;;15.70;2.30;;;10.20;99.90;;;;;;5115346;28;20024;-72
2021/12/01 09:51:11;;;;;;;10.07;2.22;;;10.20;99.90;;;;;;5115478;28;20019;-71
2021/12/01 09:53:36;;;;;;;23.52;3.35;;;10.20;99.90;;;;;;5097184;28;20043;-71
2021/12/01 09:56:03;;;;;;;22.90;2.42;;;10.20;99.90;;;;;;5115613;28;20040;-71
2021/12/01 09:58:33;;;;;;;17.70;2.92;;;10.10;99.90;;;;;;5115547;28;20028;-72
2021/12/01 10:01:11;;;;;;;11.13;1.42;;;10.10;99.90;;;;;;5114957;28;20050;-71
2021/12/01 10:03:36;;;;;;;15.60;2.33;;;10.10;99.90;;;;;;5097123;28;20076;-71
2021/12/01 10:06:13;;;;;;;16.67;2.72;;;10.10;99.90;;;;;;5097047;28;20127;-72
2021/12/01 10:08:46;;;;;;;24.35;2.92;;;10.10;99.90;;;;;;5114814;28;20024;-72
2021/12/01 10:11:32;;;;;;;17.98;2.60;;;10.10;99.90;;;;;;5096490;28;20391;-72
2021/12/01 10:14:08;;;;;;;13.50;2.20;;;10.10;99.90;;;;;;5095172;28;20503;-72
2021/12/01 10:16:38;;;;;;;12.85;2.80;;;10.10;99.90;;;;;;5094536;28;20383;-72
2021/12/01 10:19:06;;;;;;;11.13;1.88;;;10.10;99.90;;;;;;5114663;28;20031;-72
2021/12/01 10:21:37;;;;;;;17.52;2.22;;;10.10;99.90;;;;;;5115212;28;20038;-72
2021/12/01 10:24:07;;;;;;;12.45;2.78;;;10.20;99.90;;;;;;5115738;28;20024;-72
2021/12/01 10:26:47;;;;;;;14.07;2.20;;;10.20;99.90;;;;;;5115839;28;20488;-72
2021/12/01 10:29:19;;;;;;;16.45;2.22;;;10.20;99.90;;;;;;5114819;28;20165;-71
2021/12/01 10:31:51;;;;;;;12.68;2.28;;;10.20;99.90;;;;;;5115288;28;20039;-72
2021/12/01 10:34:26;;;;;;;;;;;10.20;99.90;;;;;;5115996;28;20116;-72
2021/12/01 10:37:30;;;;;;;12.85;2.72;;;10.20;99.90;;;;;;5114506;28;20287;-72
2021/12/01 10:40:11;;;;;;;10.38;1.98;;;10.20;99.90;;;;;;5108757;28;20046;-72
2021/12/01 10:42:56;;;;;;;15.30;2.70;;;10.20;99.90;;;;;;5113337;28;20116;-71
2021/12/01 10:45:25;;;;;;;19.17;2.25;;;10.20;99.90;;;;;;5112073;28;20039;-72
2021/12/01 10:47:52;;;;;;;15.18;1.90;;;10.10;99.90;;;;;;5113700;28;20031;-72
2021/12/01 10:50:21;;;;;;;9.93;1.88;;;10.10;99.90;;;;;;5096280;28;20020;-71
2021/12/01 10:52:49;;;;;;;9.30;1.95;;;10.10;99.90;;;;;;5094743;28;20494;-71
2021/12/01 10:55:16;;;;;;;12.48;2.75;;;10.20;99.90;;;;;;5115289;28;20020;-72
2021/12/01 10:57:47;;;;;;;13.07;2.28;;;10.20;99.90;;;;;;5105315;28;20107;-74
2021/12/01 11:00:16;;;;;;;8.25;1.85;;;10.20;99.90;;;;;;5099966;28;20052;-72
2021/12/01 11:02:42;;;;;;;10.30;2.00;;;10.20;99.90;;;;;;5110860;28;20378;-73
2021/12/01 11:05:09;;;;;;;12.00;1.85;;;10.20;99.90;;;;;;5112723;28;20026;-74
2021/12/01 11:07:35;;;;;;;10.73;2.00;;;10.20;99.90;;;;;;5112196;28;20030;-76
2021/12/01 11:10:21;;;;;;;7.07;2.05;;;10.30;99.90;;;;;;5093845;28;20023;-72
2021/12/01 11:12:56;;;;;;;12.18;2.13;;;10.30;99.90;;;;;;5112291;28;20031;-73
2021/12/01 11:15:26;;;;;;;8.90;1.55;;;10.40;99.90;;;;;;5101560;28;20061;-72
2021/12/01 11:17:54;;;;;;;10.68;1.75;;;10.40;99.90;;;;;;5112025;28;20096;-73
2021/12/01 11:20:43;;;;;;;15.75;2.38;;;10.50;99.90;;;;;;5102901;28;20149;-72
2021/12/01 11:23:27;;;;;;;12.15;2.97;;;10.50;99.90;;;;;;5106361;28;20024;-72
2021/12/01 11:26:20;;;;;;;17.08;2.05;;;10.50;99.90;;;;;;5112077;28;20032;-72
2021/12/01 11:29:01;;;;;;;11.02;1.80;;;10.50;99.90;;;;;;5112089;28;20559;-75
2021/12/01 11:31:35;;;;;;;11.70;1.58;;;10.50;99.90;;;;;;5105215;28;20131;-72
2021/12/01 11:34:08;;;;;;;10.00;2.28;;;10.60;99.90;;;;;;5114299;28;20028;-73
2021/12/01 11:36:38;;;;;;;18.88;2.33;;;10.50;99.90;;;;;;5106856;28;20074;-72
2021/12/01 11:39:07;;;;;;;13.68;1.80;;;10.50;99.90;;;;;;5114258;27;20024;-71
2021/12/01 11:41:36;;;;;;;12.00;2.88;;;10.50;99.90;;;;;;5111736;27;20031;-72
2021/12/01 11:44:03;;;;;;;17.02;2.15;;;10.50;99.90;;;;;;5112414;28;20070;-73
2021/12/01 11:46:32;;;;;;;14.68;2.60;;;10.40;99.90;;;;;;5098929;28;20456;-75
2021/12/01 11:49:03;;;;;;;11.00;1.83;;;10.40;99.90;;;;;;5113612;28;20084;-71
2021/12/01 11:51:36;;;;;;;9.95;2.15;;;10.30;99.90;;;;;;5113600;28;20054;-72
2021/12/01 11:54:07;;;;;;;10.27;1.90;;;10.30;99.90;;;;;;5098266;28;20035;-72
2021/12/01 11:56:35;;;;;;;16.50;2.40;;;10.20;99.90;;;;;;5113650;28;20024;-72
2021/12/01 11:59:16;;;;;;;5.93;1.35;;;10.10;99.90;;;;;;5113622;28;20026;-72
2021/12/01 12:01:43;;;;;;;17.42;2.28;;;10.00;99.90;;;;;;5112994;28;20048;-72
2021/12/01 12:04:09;;;;;;;11.30;2.20;;;10.00;99.90;;;;;;5097249;28;20024;-72
2021/12/01 12:06:47;;;;;;;16.27;2.17;;;10.00;99.90;;;;;;5095714;28;20375;-72
2021/12/01 12:09:18;;;;;;;18.60;3.25;;;10.00;99.90;;;;;;5110667;28;20522;-72
2021/12/01 12:11:47;;;;;;;23.27;3.38;;;10.00;99.90;;;;;;5109869;28;20039;-72
2021/12/01 12:14:28;;;;;;;14.88;3.05;;;10.00;99.90;;;;;;5112953;28;20058;-73
2021/12/01 12:17:14;;;;;;;12.67;2.43;;;10.00;99.90;;;;;;5112280;28;20032;-72
2021/12/01 12:20:19;;;;;;;13.63;3.25;;;10.00;99.90;;;;;;5093629;28;20651;-72
2021/12/01 12:22:46;;;;;;;13.10;2.22;;;10.00;99.90;;;;;;5091446;28;20047;-72
2021/12/01 12:25:34;;;;;;;21.02;3.40;;;10.00;99.90;;;;;;5112642;28;20019;-72
2021/12/01 12:28:17;;;;;;;22.38;3.38;;;9.90;99.90;;;;;;5096880;28;20077;-72
2021/12/01 12:30:43;;;;;;;15.32;2.50;;;9.90;99.90;;;;;;5112809;28;20023;-73
2021/12/01 12:33:27;;;;;;;16.80;3.58;;;9.90;99.90;;;;;;5113007;28;20032;-72
2021/12/01 12:35:59;;;;;;;19.48;3.65;;;10.00;99.90;;;;;;5112537;28;20119;-72
2021/12/01 12:38:25;;;;;;;20.85;3.28;;;10.00;99.90;;;;;;5113078;28;20016;-72
2021/12/01 12:41:08;;;;;;;22.80;3.35;;;10.00;99.90;;;;;;5112818;28;20309;-71
2021/12/01 12:43:36;;;;;;;16.80;3.45;;;10.00;99.90;;;;;;5113278;28;20028;-72
2021/12/01 12:46:12;;;;;;;13.63;2.42;;;10.00;99.90;;;;;;5111976;28;20093;-71
2021/12/01 12:48:40;;;;;;;26.13;2.95;;;10.00;99.90;;;;;;5109447;28;20380;-72
2021/12/01 12:51:18;;;;;;;16.83;2.38;;;10.10;99.90;;;;;;5111242;28;20483;-71